Time;durP1;ratioP1;P1;durP2;ratioP2;P2;SDS_P1;SDS_P2;PMS_P1;PMS_P2;Temp;Humidity;BMP_temperature;BMP_pressure;BME280_temperature;BME280_humidity;BME280_pressure;Samples;Min_cycle;Max_cycle;Signal;HPM_P1;HPM_P2
2021/01/14 00:00:37;;;;;;;11.55;10.13;;;11.70;99.90;;;;;;5047046;28;20047;-79
2021/01/14 00:03:08;;;;;;;11.32;9.75;;;11.70;99.90;;;;;;5047107;28;20033;-79
2021/01/14 00:05:34;;;;;;;11.32;10.05;;;11.70;99.90;;;;;;5047045;28;20033;-81
2021/01/14 00:08:00;;;;;;;11.15;9.57;;;11.70;99.90;;;;;;5047268;28;20044;-82
2021/01/14 00:10:26;;;;;;;12.40;9.18;;;11.70;99.90;;;;;;5030794;28;20480;-82
2021/01/14 00:12:52;;;;;;;11.57;9.73;;;11.70;99.90;;;;;;5046910;28;20095;-83
2021/01/14 00:15:18;;;;;;;12.27;9.23;;;11.70;99.90;;;;;;5030870;28;20032;-82
2021/01/14 00:17:45;;;;;;;12.45;9.07;;;11.70;99.90;;;;;;5030708;28;20083;-81
2021/01/14 00:20:13;;;;;;;11.02;9.63;;;11.70;99.90;;;;;;5047116;28;20488;-80
2021/01/14 00:22:39;;;;;;;8.77;7.88;;;11.70;99.90;;;;;;5046859;28;20025;-81
2021/01/14 00:25:07;;;;;;;8.50;7.60;;;11.70;99.90;;;;;;5048327;28;20029;-82
2021/01/14 00:27:33;;;;;;;6.68;5.97;;;11.70;99.90;;;;;;5046900;28;20021;-84
2021/01/14 00:29:59;;;;;;;7.32;6.30;;;11.70;99.90;;;;;;5013960;28;20055;-83
2021/01/14 00:32:25;;;;;;;5.30;4.80;;;11.70;99.90;;;;;;5047743;28;20042;-80
2021/01/14 00:34:51;;;;;;;5.93;4.63;;;11.70;99.90;;;;;;5030373;28;20132;-82
2021/01/14 00:40:01;;;;;;;3.80;3.08;;;11.70;99.90;;;;;;5047214;28;20087;-82
2021/01/14 00:42:26;;;;;;;3.90;2.90;;;11.70;99.90;;;;;;5048081;28;20037;-80
2021/01/14 00:44:52;;;;;;;5.05;2.85;;;11.70;99.90;;;;;;5046718;28;20036;-80
2021/01/14 00:47:18;;;;;;;2.53;2.13;;;11.70;99.90;;;;;;5029269;28;20094;-80
2021/01/14 00:49:43;;;;;;;2.53;1.73;;;11.70;99.90;;;;;;5047815;28;20400;-81
2021/01/14 00:52:10;;;;;;;2.50;2.10;;;11.60;99.90;;;;;;5029855;28;20029;-80
2021/01/14 00:54:38;;;;;;;2.17;1.75;;;11.70;99.90;;;;;;5046526;28;20029;-80
2021/01/14 00:57:06;;;;;;;2.58;1.80;;;11.60;99.90;;;;;;5047040;28;20426;-81
2021/01/14 00:59:32;;;;;;;2.30;1.83;;;11.60;99.90;;;;;;5046454;28;20108;-82
2021/01/14 01:01:57;;;;;;;2.30;1.70;;;11.60;99.90;;;;;;5030397;28;20557;-80
2021/01/14 01:04:23;;;;;;;3.45;1.90;;;11.60;99.90;;;;;;5030022;28;20029;-81
2021/01/14 01:06:49;;;;;;;2.65;1.83;;;11.60;99.90;;;;;;5046631;28;20029;-82
2021/01/14 01:09:14;;;;;;;2.13;1.65;;;11.60;99.90;;;;;;5029644;28;20029;-81
2021/01/14 01:11:40;;;;;;;3.75;2.00;;;11.60;99.90;;;;;;5030017;28;20099;-84
2021/01/14 01:14:06;;;;;;;2.90;2.30;;;11.60;99.90;;;;;;5047673;28;20041;-81
2021/01/14 01:16:32;;;;;;;2.10;1.83;;;11.60;99.90;;;;;;5048241;28;20029;-81
2021/01/14 01:18:58;;;;;;;3.30;2.13;;;11.60;99.90;;;;;;5048170;28;20048;-83
2021/01/14 01:21:24;;;;;;;2.53;2.17;;;11.60;99.90;;;;;;5046518;28;20032;-81
2021/01/14 01:23:50;;;;;;;4.43;2.33;;;11.60;99.90;;;;;;5046886;28;20029;-85
2021/01/14 01:26:17;;;;;;;2.88;2.45;;;11.60;99.90;;;;;;5013632;28;20589;-79
2021/01/14 01:28:43;;;;;;;3.80;2.50;;;11.60;99.90;;;;;;5046133;28;20032;-80
2021/01/14 01:31:10;;;;;;;2.80;2.30;;;11.60;99.90;;;;;;5047927;28;20036;-81
2021/01/14 01:33:36;;;;;;;3.95;2.75;;;11.50;99.90;;;;;;5030247;28;20030;-79
2021/01/14 01:36:03;;;;;;;2.72;2.25;;;11.50;99.90;;;;;;5047611;28;20060;-85
2021/01/14 01:38:28;;;;;;;2.90;2.60;;;11.50;99.90;;;;;;5047979;28;20033;-80
2021/01/14 01:41:01;;;;;;;2.40;2.20;;;11.50;99.90;;;;;;5046663;28;20501;-81
2021/01/14 01:43:28;;;;;;;3.05;2.53;;;11.50;99.90;;;;;;5046897;28;20029;-81
2021/01/14 01:45:54;;;;;;;3.13;2.83;;;11.50;99.90;;;;;;5029496;28;20048;-82
2021/01/14 01:48:21;;;;;;;4.32;3.00;;;11.50;99.90;;;;;;5046458;28;20506;-81
2021/01/14 01:50:49;;;;;;;3.42;2.58;;;11.50;99.90;;;;;;5047449;28;20112;-81
2021/01/14 01:53:15;;;;;;;3.28;2.97;;;11.50;99.90;;;;;;5047814;28;20013;-81
2021/01/14 01:55:45;;;;;;;3.90;3.00;;;11.50;99.90;;;;;;5047521;28;20024;-81
2021/01/14 01:58:12;;;;;;;3.13;2.50;;;11.50;99.90;;;;;;5048790;28;20021;-81
2021/01/14 02:00:38;;;;;;;3.70;2.92;;;11.50;99.90;;;;;;5051301;28;20040;-83
2021/01/14 02:03:04;;;;;;;2.88;2.53;;;11.50;99.90;;;;;;5050093;28;20026;-80
2021/01/14 02:05:30;;;;;;;4.35;2.85;;;11.50;99.90;;;;;;5049427;28;20625;-82
2021/01/14 02:08:14;;;;;;;3.35;2.75;;;11.50;99.90;;;;;;5050622;28;20513;-82
2021/01/14 02:10:49;;;;;;;4.68;3.28;;;11.50;99.90;;;;;;5051053;28;20415;-83
2021/01/14 02:13:39;;;;;;;4.65;2.85;;;11.50;99.90;;;;;;5050074;28;20486;-82
2021/01/14 02:16:06;;;;;;;3.40;2.97;;;11.50;99.90;;;;;;5051536;28;20017;-81
2021/01/14 02:18:31;;;;;;;4.20;2.95;;;11.50;99.90;;;;;;5034381;28;20033;-80
2021/01/14 02:21:03;;;;;;;3.90;2.70;;;11.40;99.90;;;;;;5033892;28;20249;-80
2021/01/14 02:23:29;;;;;;;3.88;2.60;;;11.40;99.90;;;;;;5051202;28;20025;-81
2021/01/14 02:25:55;;;;;;;3.55;2.60;;;11.40;99.90;;;;;;5049581;28;20032;-81
2021/01/14 02:28:23;;;;;;;2.90;2.60;;;11.30;99.90;;;;;;5051209;28;20025;-82
2021/01/14 02:30:48;;;;;;;3.05;2.53;;;11.30;99.90;;;;;;5049646;28;20025;-81
2021/01/14 02:33:14;;;;;;;4.40;2.50;;;11.30;99.90;;;;;;5049207;28;20116;-80
2021/01/14 02:35:40;;;;;;;3.70;2.60;;;11.30;99.90;;;;;;5033028;28;20026;-82
2021/01/14 02:38:05;;;;;;;2.65;2.10;;;11.30;99.90;;;;;;5033577;28;20055;-80
2021/01/14 02:40:31;;;;;;;3.17;2.30;;;11.20;99.90;;;;;;5032955;28;20033;-79
2021/01/14 02:42:57;;;;;;;3.85;2.33;;;11.20;99.90;;;;;;5051365;28;20116;-81
2021/01/14 02:45:22;;;;;;;2.28;1.95;;;11.20;99.90;;;;;;5050573;28;20029;-83
2021/01/14 02:47:50;;;;;;;1.60;1.23;;;11.20;99.90;;;;;;5032525;28;20555;-81
2021/01/14 02:50:17;;;;;;;2.13;1.40;;;11.20;99.90;;;;;;5050097;28;20061;-80
2021/01/14 02:52:45;;;;;;;2.20;1.33;;;11.20;99.90;;;;;;5048760;28;20029;-79
2021/01/14 02:55:12;;;;;;;2.15;1.20;;;11.20;99.90;;;;;;5048693;28;20021;-80
2021/01/14 02:57:39;;;;;;;1.55;1.10;;;11.20;99.90;;;;;;5050160;28;20406;-82
2021/01/14 03:00:06;;;;;;;2.20;1.33;;;11.10;99.90;;;;;;5032331;28;20476;-84
2021/01/14 03:02:31;;;;;;;1.05;0.95;;;11.10;99.90;;;;;;5049051;28;20040;-82
2021/01/14 03:04:57;;;;;;;1.55;0.70;;;11.10;99.90;;;;;;5032476;28;20476;-81
2021/01/14 03:07:23;;;;;;;2.63;0.77;;;11.10;99.90;;;;;;5048348;28;20108;-81
2021/01/14 03:09:48;;;;;;;1.77;0.65;;;11.00;99.90;;;;;;5047674;28;20029;-83
2021/01/14 03:12:14;;;;;;;0.98;0.80;;;11.00;99.90;;;;;;5032766;28;20045;-83
2021/01/14 03:14:40;;;;;;;0.57;0.50;;;11.00;99.90;;;;;;5049056;28;20029;-85
2021/01/14 03:17:06;;;;;;;1.73;0.40;;;10.90;99.90;;;;;;5032084;28;20037;-80
2021/01/14 03:19:31;;;;;;;0.55;0.50;;;10.90;99.90;;;;;;5050057;28;20119;-83
2021/01/14 03:22:00;;;;;;;0.55;0.40;;;10.90;99.90;;;;;;5032394;28;20021;-84
2021/01/14 03:24:27;;;;;;;0.50;0.30;;;10.80;99.90;;;;;;5049838;28;20025;-82
2021/01/14 03:26:53;;;;;;;1.13;0.30;;;10.80;99.90;;;;;;5049521;28;20033;-80
2021/01/14 03:29:18;;;;;;;0.93;0.50;;;10.80;99.90;;;;;;5048793;28;20028;-84
2021/01/14 03:31:44;;;;;;;0.90;0.30;;;10.80;99.90;;;;;;5049335;28;20033;-81
2021/01/14 03:34:10;;;;;;;0.40;0.38;;;10.70;99.90;;;;;;5032347;28;20067;-82
2021/01/14 03:36:56;;;;;;;0.85;0.63;;;10.70;99.90;;;;;;5048728;28;20037;-81
2021/01/14 03:39:25;;;;;;;1.80;0.70;;;10.70;99.90;;;;;;5049164;28;20036;-81
2021/01/14 03:41:52;;;;;;;3.15;0.65;;;10.60;99.90;;;;;;5049714;28;20440;-81
2021/01/14 03:44:18;;;;;;;1.77;0.63;;;10.60;99.90;;;;;;5015526;28;20037;-81
2021/01/14 03:46:46;;;;;;;2.30;0.60;;;10.60;99.90;;;;;;5048538;28;20021;-81
2021/01/14 03:49:12;;;;;;;2.83;0.73;;;10.60;99.90;;;;;;5049425;28;20032;-82
2021/01/14 03:51:38;;;;;;;2.00;0.77;;;10.50;99.90;;;;;;5049245;28;20031;-81
2021/01/14 03:54:04;;;;;;;2.20;0.70;;;10.50;99.90;;;;;;5049524;28;20032;-82
2021/01/14 03:56:35;;;;;;;2.83;0.50;;;10.50;99.90;;;;;;5031705;28;20373;-79
2021/01/14 03:59:01;;;;;;;3.53;0.60;;;10.50;99.90;;;;;;5049315;28;20025;-80
2021/01/14 04:01:27;;;;;;;4.45;0.65;;;10.50;99.90;;;;;;5047731;28;20386;-84
2021/01/14 04:03:52;;;;;;;6.78;0.73;;;10.50;99.90;;;;;;5031441;28;20039;-78
2021/01/14 04:06:20;;;;;;;0.68;0.45;;;10.50;99.90;;;;;;5047758;28;20446;-82
2021/01/14 04:08:45;;;;;;;4.70;0.60;;;10.50;99.90;;;;;;5015527;28;20029;-81
2021/01/14 04:11:11;;;;;;;1.40;0.60;;;10.50;99.90;;;;;;5030697;28;20056;-82
2021/01/14 04:13:37;;;;;;;5.03;0.75;;;10.50;99.90;;;;;;5048563;28;20480;-81
2021/01/14 04:16:03;;;;;;;1.70;0.40;;;10.40;99.90;;;;;;5047819;28;20067;-82
2021/01/14 04:18:29;;;;;;;2.75;0.38;;;10.40;99.90;;;;;;5047895;28;20076;-80
2021/01/14 04:20:55;;;;;;;1.65;0.45;;;10.50;99.90;;;;;;5047220;28;20083;-81
2021/01/14 04:23:20;;;;;;;1.80;0.50;;;10.50;99.90;;;;;;5030865;28;20033;-81
2021/01/14 04:25:46;;;;;;;0.47;0.40;;;10.40;99.90;;;;;;5047959;28;20044;-82
2021/01/14 04:28:12;;;;;;;1.25;0.40;;;10.40;99.90;;;;;;5047936;28;20033;-80
2021/01/14 04:30:37;;;;;;;5.72;0.68;;;10.40;99.90;;;;;;5014697;28;20037;-80
2021/01/14 04:33:13;;;;;;;3.45;0.95;;;10.40;99.90;;;;;;5047749;28;20021;-79
2021/01/14 04:35:49;;;;;;;1.52;0.50;;;10.40;99.90;;;;;;5047997;28;20029;-81
2021/01/14 04:38:16;;;;;;;3.85;0.65;;;10.30;99.90;;;;;;5049053;28;20048;-79
2021/01/14 04:40:46;;;;;;;0.82;0.40;;;10.30;99.90;;;;;;5046808;28;20021;-80
2021/01/14 04:43:13;;;;;;;1.08;0.57;;;10.30;99.90;;;;;;5048782;28;20035;-83
2021/01/14 04:45:43;;;;;;;2.20;0.55;;;10.30;99.90;;;;;;5049536;28;20025;-81
2021/01/14 04:48:10;;;;;;;2.55;0.60;;;10.20;99.90;;;;;;5048118;28;20029;-81
2021/01/14 04:50:37;;;;;;;2.28;0.63;;;10.20;99.90;;;;;;5048656;28;20479;-79
2021/01/14 04:53:05;;;;;;;1.30;0.60;;;10.20;99.90;;;;;;5047757;28;20028;-78
2021/01/14 04:55:42;;;;;;;1.90;0.60;;;10.20;99.90;;;;;;5030703;28;20025;-80
2021/01/14 04:58:13;;;;;;;7.35;0.80;;;10.10;99.90;;;;;;5048744;28;20071;-80
2021/01/14 05:00:45;;;;;;;0.93;0.60;;;10.10;99.90;;;;;;5048860;28;20204;-80
2021/01/14 05:03:14;;;;;;;1.00;0.50;;;10.10;99.90;;;;;;5048485;28;20074;-80
2021/01/14 05:05:45;;;;;;;1.13;0.50;;;10.10;99.90;;;;;;5048091;28;20544;-83
2021/01/14 05:08:14;;;;;;;2.20;0.93;;;10.10;99.90;;;;;;5031821;28;20033;-81
2021/01/14 05:10:41;;;;;;;5.85;0.98;;;10.10;99.90;;;;;;5047940;28;20052;-81
2021/01/14 05:13:08;;;;;;;5.25;0.60;;;10.10;99.90;;;;;;5048614;28;20035;-78
2021/01/14 05:15:35;;;;;;;1.75;0.73;;;10.10;99.90;;;;;;5050113;28;20021;-78
2021/01/14 05:18:01;;;;;;;2.15;0.50;;;10.00;99.90;;;;;;5031374;28;20071;-78
2021/01/14 05:20:27;;;;;;;2.67;0.47;;;10.00;99.90;;;;;;5030460;28;20388;-80
2021/01/14 05:22:59;;;;;;;1.98;0.47;;;10.00;99.90;;;;;;5030509;28;20159;-84
2021/01/14 05:25:26;;;;;;;2.70;0.68;;;10.00;99.90;;;;;;5046404;28;20454;-82
2021/01/14 05:27:51;;;;;;;1.25;0.40;;;10.00;99.90;;;;;;5048543;28;20470;-79
2021/01/14 05:30:18;;;;;;;3.92;1.30;;;9.90;99.90;;;;;;5048484;28;20033;-78
2021/01/14 05:32:46;;;;;;;2.97;0.55;;;9.90;99.90;;;;;;5046882;28;20503;-82
2021/01/14 05:35:13;;;;;;;3.75;0.57;;;9.90;99.90;;;;;;5052099;28;20375;-81
2021/01/14 05:37:44;;;;;;;1.70;0.70;;;9.90;99.90;;;;;;5052773;28;20044;-81
2021/01/14 05:40:22;;;;;;;2.55;0.68;;;9.90;99.90;;;;;;5052320;28;20517;-81
2021/01/14 05:43:05;;;;;;;4.93;1.05;;;9.90;99.90;;;;;;5051312;28;20024;-79
2021/01/14 05:45:35;;;;;;;2.65;0.70;;;9.90;99.90;;;;;;5051425;28;20510;-81
2021/01/14 05:48:12;;;;;;;2.50;0.68;;;9.90;99.90;;;;;;5035129;28;20037;-79
2021/01/14 05:50:47;;;;;;;6.53;0.73;;;9.90;99.90;;;;;;5051294;28;20116;-81
2021/01/14 05:53:18;;;;;;;7.75;1.50;;;9.90;99.90;;;;;;5051159;28;20033;-80
2021/01/14 05:55:45;;;;;;;7.93;1.17;;;9.90;99.90;;;;;;5051832;28;20088;-82
2021/01/14 05:58:19;;;;;;;4.30;0.60;;;9.90;99.90;;;;;;5051998;28;20380;-81
2021/01/14 06:00:48;;;;;;;1.60;0.70;;;9.90;99.90;;;;;;5051204;28;20021;-81
2021/01/14 06:03:28;;;;;;;3.97;0.70;;;9.90;99.90;;;;;;5051314;28;20033;-82
2021/01/14 06:05:54;;;;;;;;;;;9.80;99.90;;;;;;5018419;28;20032;-80
2021/01/14 06:08:24;;;;;;;3.80;0.70;;;9.80;99.90;;;;;;5050628;28;20202;-82
2021/01/14 06:10:50;;;;;;;5.97;0.95;;;9.80;99.90;;;;;;5051253;28;20411;-81
2021/01/14 06:13:16;;;;;;;7.85;1.02;;;9.80;99.90;;;;;;5052973;28;20044;-82
2021/01/14 06:15:42;;;;;;;2.70;0.60;;;9.80;99.90;;;;;;5051712;28;20025;-81
2021/01/14 06:18:12;;;;;;;4.72;0.90;;;9.80;99.90;;;;;;5034583;28;20052;-84
2021/01/14 06:20:53;;;;;;;4.25;0.77;;;9.80;99.90;;;;;;5052292;28;20530;-78
2021/01/14 06:23:22;;;;;;;6.43;0.77;;;9.80;99.90;;;;;;5049847;28;20078;-80
2021/01/14 06:25:50;;;;;;;6.07;0.57;;;9.80;99.90;;;;;;5051011;28;20406;-82
2021/01/14 06:28:21;;;;;;;4.60;0.60;;;9.80;99.90;;;;;;5050982;28;20035;-79
2021/01/14 06:31:08;;;;;;;2.83;0.77;;;9.80;99.90;;;;;;5051770;28;20459;-82
2021/01/14 06:33:35;;;;;;;5.57;0.60;;;9.80;99.90;;;;;;5050381;28;20028;-82
2021/01/14 06:36:10;;;;;;;5.97;0.77;;;9.80;99.90;;;;;;5049931;28;20035;-80
2021/01/14 06:38:45;;;;;;;0.80;0.40;;;9.80;99.90;;;;;;5050841;28;20021;-82
2021/01/14 06:41:18;;;;;;;4.65;0.68;;;9.80;99.90;;;;;;5052727;28;20041;-79
2021/01/14 06:43:46;;;;;;;8.70;0.90;;;9.80;99.90;;;;;;5050253;28;20036;-80
2021/01/14 06:46:22;;;;;;;5.03;0.60;;;9.80;99.90;;;;;;5033603;28;20416;-79
2021/01/14 06:49:11;;;;;;;3.45;0.90;;;9.80;99.90;;;;;;5050936;28;20025;-82
2021/01/14 06:51:54;;;;;;;4.50;0.98;;;9.70;99.90;;;;;;5049588;28;20025;-81
2021/01/14 06:54:21;;;;;;;5.25;0.95;;;9.70;99.90;;;;;;5050276;28;20108;-78
2021/01/14 06:57:11;;;;;;;4.43;0.60;;;9.70;99.90;;;;;;5049303;28;20511;-81
2021/01/14 06:59:38;;;;;;;3.45;0.60;;;9.70;99.90;;;;;;5048750;28;20025;-79
2021/01/14 07:02:07;;;;;;;6.43;0.73;;;9.70;99.90;;;;;;5032875;28;20434;-80
2021/01/14 07:04:42;;;;;;;5.03;0.70;;;9.70;99.90;;;;;;5049069;28;20024;-78
2021/01/14 07:07:48;;;;;;;5.13;0.73;;;9.70;99.90;;;;;;5050580;28;20025;-81
2021/01/14 07:10:15;;;;;;;3.20;0.57;;;9.70;99.90;;;;;;5048361;28;20041;-80
2021/01/14 07:12:43;;;;;;;4.07;0.57;;;9.70;99.90;;;;;;5049103;28;20044;-79
2021/01/14 07:15:16;;;;;;;7.25;1.25;;;9.70;99.90;;;;;;5052202;28;20025;-80
2021/01/14 07:17:44;;;;;;;2.72;0.50;;;9.70;99.90;;;;;;5032956;28;20424;-82
2021/01/14 07:20:16;;;;;;;3.42;0.55;;;9.70;99.90;;;;;;5049869;28;20112;-80
2021/01/14 07:22:50;;;;;;;2.25;0.30;;;9.70;99.90;;;;;;5051469;28;20025;-80
2021/01/14 07:25:17;;;;;;;3.60;0.70;;;9.60;99.90;;;;;;5049793;28;20552;-81
2021/01/14 07:27:44;;;;;;;1.08;0.30;;;9.60;99.90;;;;;;5048254;28;20029;-80
2021/01/14 07:30:11;;;;;;;1.13;0.30;;;9.60;99.90;;;;;;5048662;28;20086;-81
2021/01/14 07:32:52;;;;;;;2.55;0.32;;;9.60;99.90;;;;;;5049644;28;20053;-81
2021/01/14 07:35:35;;;;;;;3.85;0.50;;;9.60;99.90;;;;;;5049633;28;20024;-79
2021/01/14 07:38:01;;;;;;;1.27;0.40;;;9.60;99.90;;;;;;5048814;28;20434;-83
2021/01/14 07:40:35;;;;;;;4.75;0.90;;;9.60;99.90;;;;;;5048729;28;20471;-80
2021/01/14 07:43:03;;;;;;;4.25;0.75;;;9.60;99.90;;;;;;5048960;28;20059;-82
2021/01/14 07:45:29;;;;;;;2.42;0.52;;;9.60;99.90;;;;;;5049109;28;20042;-80
2021/01/14 07:47:58;;;;;;;2.15;0.47;;;9.60;99.90;;;;;;5031919;28;20033;-80
2021/01/14 07:50:28;;;;;;;2.03;0.50;;;9.70;99.90;;;;;;5049034;28;20040;-82
2021/01/14 07:52:56;;;;;;;2.25;0.50;;;9.70;99.90;;;;;;5048192;28;20028;-78
2021/01/14 07:55:34;;;;;;;1.15;0.32;;;9.70;99.90;;;;;;5048013;28;20025;-81
2021/01/14 07:58:13;;;;;;;5.43;0.77;;;9.70;99.90;;;;;;5048088;28;20535;-82
2021/01/14 08:00:41;;;;;;;2.45;0.55;;;9.70;99.90;;;;;;5047978;28;20380;-82
2021/01/14 08:03:15;;;;;;;2.57;0.50;;;9.80;99.90;;;;;;5048053;28;20025;-82
2021/01/14 08:05:58;;;;;;;2.47;0.60;;;9.80;99.90;;;;;;5048711;28;20483;-81
2021/01/14 08:08:30;;;;;;;2.60;0.60;;;9.80;99.90;;;;;;5047576;28;20116;-80
2021/01/14 08:11:10;;;;;;;1.73;0.47;;;9.80;99.90;;;;;;5049870;28;20033;-79
2021/01/14 08:14:11;;;;;;;4.70;0.50;;;9.70;99.90;;;;;;5049884;28;20021;-81
2021/01/14 08:16:46;;;;;;;1.85;0.50;;;9.70;99.90;;;;;;5048448;28;20025;-80
2021/01/14 08:19:17;;;;;;;2.70;0.80;;;9.70;99.90;;;;;;5050047;28;20014;-80
2021/01/14 08:21:45;;;;;;;1.52;0.45;;;9.70;99.90;;;;;;5049022;28;20047;-81
2021/01/14 08:24:11;;;;;;;3.15;0.60;;;9.80;99.90;;;;;;5049106;28;20479;-80
2021/01/14 08:26:54;;;;;;;2.22;0.70;;;9.80;99.90;;;;;;5047064;28;20025;-82
2021/01/14 08:29:34;;;;;;;1.25;0.88;;;9.80;99.90;;;;;;5048259;28;20029;-84
2021/01/14 08:32:00;;;;;;;2.35;1.10;;;9.70;99.90;;;;;;5047479;28;20518;-82
2021/01/14 08:34:26;;;;;;;3.80;1.08;;;9.80;99.90;;;;;;5048503;28;20044;-81
2021/01/14 08:36:56;;;;;;;6.10;2.70;;;9.80;99.90;;;;;;5046916;28;20053;-80
2021/01/14 08:39:24;;;;;;;2.97;0.50;;;9.70;99.90;;;;;;5047762;28;20025;-79
2021/01/14 08:41:51;;;;;;;1.92;0.55;;;9.70;99.90;;;;;;5048309;28;20029;-81
2021/01/14 08:44:18;;;;;;;2.40;0.85;;;9.70;99.90;;;;;;5030330;28;20058;-81
2021/01/14 08:46:50;;;;;;;5.03;1.38;;;9.70;99.90;;;;;;5048036;28;20025;-80
2021/01/14 08:49:19;;;;;;;3.58;1.20;;;9.70;99.90;;;;;;5046597;28;20119;-82
2021/01/14 08:51:45;;;;;;;4.07;1.20;;;9.70;99.90;;;;;;5047706;28;20051;-78
2021/01/14 08:54:12;;;;;;;6.90;1.75;;;9.70;99.90;;;;;;5046717;28;20108;-80
2021/01/14 08:56:39;;;;;;;21.95;6.05;;;9.70;99.90;;;;;;5046243;28;20111;-80
2021/01/14 08:59:18;;;;;;;4.55;1.17;;;9.70;99.90;;;;;;5029626;28;20120;-79
2021/01/14 09:01:44;;;;;;;2.25;0.73;;;9.70;99.90;;;;;;5030815;28;20112;-79
2021/01/14 09:04:10;;;;;;;6.45;0.68;;;9.70;99.90;;;;;;5047329;28;20365;-80
2021/01/14 09:06:37;;;;;;;2.40;0.68;;;9.70;99.90;;;;;;5049479;28;20098;-80
2021/01/14 09:09:14;;;;;;;2.88;0.60;;;9.70;99.90;;;;;;5049677;28;20047;-79
2021/01/14 09:11:40;;;;;;;6.20;0.93;;;9.70;99.90;;;;;;5050437;28;20451;-80
2021/01/14 09:14:14;;;;;;;7.32;2.03;;;9.70;99.90;;;;;;5050303;28;20025;-82
2021/01/14 09:16:44;;;;;;;8.98;2.47;;;9.70;99.90;;;;;;5051116;28;20060;-81
2021/01/14 09:19:13;;;;;;;4.15;0.82;;;9.60;99.90;;;;;;5034854;28;20025;-80
2021/01/14 09:21:39;;;;;;;4.68;1.25;;;9.50;99.90;;;;;;5051885;28;20390;-82
2021/01/14 09:24:09;;;;;;;5.22;1.25;;;9.60;99.90;;;;;;5050297;28;20037;-77
2021/01/14 09:26:38;;;;;;;3.00;0.75;;;9.60;99.90;;;;;;5050256;28;20026;-78
2021/01/14 09:29:11;;;;;;;8.20;0.80;;;9.60;99.90;;;;;;5053409;28;20294;-81
2021/01/14 09:31:37;;;;;;;4.28;0.47;;;9.50;99.90;;;;;;5054203;28;20039;-79
2021/01/14 09:34:03;;;;;;;4.82;0.70;;;9.50;99.90;;;;;;5053751;28;20021;-78
2021/01/14 09:36:29;;;;;;;5.88;1.08;;;9.50;99.90;;;;;;5052417;28;20733;-79
2021/01/14 09:38:59;;;;;;;5.47;0.80;;;9.50;99.90;;;;;;5052525;28;20095;-79
2021/01/14 09:41:33;;;;;;;5.70;0.90;;;9.50;99.90;;;;;;5051240;28;20037;-82
2021/01/14 09:44:00;;;;;;;10.52;1.27;;;9.60;99.90;;;;;;5051709;28;20036;-79
2021/01/14 09:46:29;;;;;;;3.67;0.60;;;9.60;99.90;;;;;;5036182;28;20090;-81
2021/01/14 09:49:06;;;;;;;6.13;1.05;;;9.70;99.90;;;;;;5051116;28;20029;-79
2021/01/14 09:51:39;;;;;;;3.88;1.05;;;9.80;99.90;;;;;;5052282;28;20490;-81
2021/01/14 09:54:06;;;;;;;4.82;1.30;;;9.80;99.90;;;;;;5035161;28;20072;-79
2021/01/14 09:56:41;;;;;;;4.32;0.77;;;9.90;99.90;;;;;;5051334;28;20024;-80
2021/01/14 09:59:47;;;;;;;6.85;1.20;;;9.90;99.90;;;;;;5050454;28;20429;-84
2021/01/14 10:02:15;;;;;;;2.33;0.80;;;9.90;99.90;;;;;;5048056;28;20102;-79
2021/01/14 10:04:54;;;;;;;5.07;0.80;;;9.90;99.90;;;;;;5048359;28;20086;-79
2021/01/14 10:07:21;;;;;;;4.22;0.95;;;9.90;99.90;;;;;;5040787;28;20106;-80
2021/01/14 10:09:51;;;;;;;18.70;4.22;;;9.90;99.90;;;;;;5049387;28;20057;-81
2021/01/14 10:12:16;;;;;;;;;;;9.90;99.90;;;;;;5048643;28;20049;-80
2021/01/14 10:14:42;;;;;;;9.75;3.15;;;10.00;99.90;;;;;;5049294;28;19913;-81
2021/01/14 10:17:12;;;;;;;6.00;1.38;;;10.00;99.90;;;;;;5049569;28;20029;-81
2021/01/14 10:19:41;;;;;;;3.67;1.15;;;9.90;99.90;;;;;;5049353;28;20124;-82
2021/01/14 10:22:07;;;;;;;10.93;1.75;;;9.90;99.90;;;;;;5031547;28;20553;-82
2021/01/14 10:24:34;;;;;;;6.57;1.63;;;10.00;99.90;;;;;;5049407;28;20028;-81
2021/01/14 10:27:20;;;;;;;9.35;1.60;;;10.30;99.90;;;;;;5048412;28;20024;-79
2021/01/14 10:29:47;;;;;;;9.57;1.30;;;10.80;99.90;;;;;;5049677;28;20048;-81
2021/01/14 10:32:21;;;;;;;6.53;1.20;;;11.30;99.90;;;;;;5049657;28;20116;-80
2021/01/14 10:34:49;;;;;;;7.85;1.30;;;11.70;99.90;;;;;;5049791;28;20021;-81
2021/01/14 10:37:22;;;;;;;7.93;1.38;;;12.30;99.90;;;;;;5049899;28;20471;-79
2021/01/14 10:39:49;;;;;;;10.57;1.63;;;12.80;99.90;;;;;;5049402;28;20097;-77
2021/01/14 10:42:34;;;;;;;9.57;2.35;;;13.40;99.90;;;;;;5048198;28;20407;-82
2021/01/14 10:45:09;;;;;;;8.52;1.30;;;13.70;99.90;;;;;;5048739;28;20357;-83
2021/01/14 10:47:36;;;;;;;12.77;1.92;;;14.10;99.90;;;;;;5048971;28;20028;-79
2021/01/14 10:50:17;;;;;;;7.72;1.48;;;14.60;99.90;;;;;;5030632;28;20029;-79
2021/01/14 10:53:02;;;;;;;12.70;2.13;;;15.10;99.90;;;;;;5048690;28;20219;-79
2021/01/14 10:55:28;;;;;;;9.50;2.53;;;15.70;99.90;;;;;;5046978;28;20387;-82
2021/01/14 10:57:56;;;;;;;7.63;1.20;;;16.20;99.70;;;;;;5047459;28;20025;-80
2021/01/14 11:00:23;;;;;;;10.95;1.75;;;16.70;98.40;;;;;;5046769;28;20025;-79
2021/01/14 11:03:02;;;;;;;5.68;1.67;;;17.10;97.00;;;;;;5048072;28;20025;-82
2021/01/14 11:05:47;;;;;;;9.23;1.88;;;17.30;96.00;;;;;;5048814;28;20078;-80
2021/01/14 11:08:18;;;;;;;8.60;1.45;;;17.50;95.60;;;;;;5048317;28;20056;-80
2021/01/14 11:13:11;;;;;;;8.05;1.77;;;17.80;95.80;;;;;;5045947;28;20372;-80
2021/01/14 11:15:37;;;;;;;7.50;1.45;;;18.30;94.20;;;;;;5044457;28;20038;-79
2021/01/14 11:18:05;;;;;;;8.75;2.13;;;18.40;93.70;;;;;;5044411;28;20116;-78
2021/01/14 11:20:31;;;;;;;10.52;2.05;;;18.50;93.10;;;;;;5044580;28;20034;-78
2021/01/14 11:22:57;;;;;;;8.25;1.92;;;18.70;92.80;;;;;;5046106;28;20112;-80
2021/01/14 11:25:23;;;;;;;6.28;1.50;;;18.90;92.20;;;;;;5044841;28;20064;-79
2021/01/14 11:27:49;;;;;;;10.80;2.30;;;18.90;91.10;;;;;;5044383;28;20033;-80
2021/01/14 11:30:15;;;;;;;7.13;1.75;;;19.10;91.00;;;;;;5043362;28;20402;-80
2021/01/14 11:32:41;;;;;;;11.63;2.28;;;19.10;90.00;;;;;;5043118;28;20095;-79
2021/01/14 11:35:08;;;;;;;13.40;2.05;;;19.10;88.90;;;;;;5027213;28;20467;-81
2021/01/14 11:37:33;;;;;;;10.35;1.92;;;19.00;87.80;;;;;;5043007;28;20158;-80
2021/01/14 11:39:59;;;;;;;10.60;1.90;;;18.80;86.00;;;;;;5045204;28;20057;-78
2021/01/14 11:42:28;;;;;;;10.88;2.15;;;18.70;86.70;;;;;;5027251;28;20025;-80
2021/01/14 11:44:54;;;;;;;12.23;2.13;;;18.70;86.70;;;;;;5043909;28;20408;-79
2021/01/14 11:47:20;;;;;;;10.18;2.30;;;18.80;87.90;;;;;;5044023;28;20034;-79
2021/01/14 11:49:47;;;;;;;9.38;2.35;;;18.90;87.20;;;;;;5043447;28;20033;-78
2021/01/14 11:52:14;;;;;;;7.35;2.40;;;18.90;86.80;;;;;;5044376;28;20480;-81
2021/01/14 11:54:40;;;;;;;9.57;2.10;;;19.00;86.60;;;;;;5027036;28;20029;-79
2021/01/14 11:57:06;;;;;;;9.98;2.65;;;19.10;85.60;;;;;;5026043;28;20532;-80
2021/01/14 11:59:31;;;;;;;10.48;2.10;;;19.20;85.20;;;;;;5043641;28;20021;-78
2021/01/14 12:01:57;;;;;;;8.30;2.00;;;19.30;84.70;;;;;;5027752;28;20128;-79
2021/01/14 12:04:23;;;;;;;16.15;4.07;;;19.30;84.30;;;;;;5026531;28;20079;-79
2021/01/14 12:06:52;;;;;;;11.18;2.70;;;19.30;83.20;;;;;;5026600;28;20067;-79
2021/01/14 12:09:19;;;;;;;11.32;2.92;;;19.20;82.30;;;;;;5043085;28;20021;-78
2021/01/14 12:11:44;;;;;;;10.30;2.50;;;19.10;82.10;;;;;;5044256;28;20045;-78
2021/01/14 12:14:10;;;;;;;11.82;3.35;;;19.00;81.40;;;;;;5042631;28;20255;-79
2021/01/14 12:16:36;;;;;;;10.85;2.83;;;19.00;81.30;;;;;;5026758;28;20065;-79
2021/01/14 12:19:01;;;;;;;12.48;3.13;;;18.90;81.60;;;;;;5043097;28;20048;-80
2021/01/14 12:21:27;;;;;;;11.95;2.35;;;18.90;82.80;;;;;;5025897;28;20086;-82
2021/01/14 12:23:53;;;;;;;10.75;2.85;;;19.00;82.50;;;;;;5032684;28;20049;-79
2021/01/14 12:26:19;;;;;;;5.32;1.67;;;19.00;80.20;;;;;;5030629;28;20060;-81
2021/01/14 12:28:46;;;;;;;11.70;2.70;;;18.90;79.60;;;;;;5029042;28;20040;-78
2021/01/14 12:31:11;;;;;;;8.75;2.15;;;18.80;79.30;;;;;;5028908;28;20337;-82
2021/01/14 12:33:37;;;;;;;8.40;1.98;;;18.70;79.90;;;;;;5012708;28;20035;-76
2021/01/14 12:36:03;;;;;;;8.75;2.05;;;18.60;79.40;;;;;;5029814;28;20476;-76
2021/01/14 12:38:29;;;;;;;13.40;1.90;;;18.50;79.00;;;;;;5029189;28;20022;-79
2021/01/14 12:40:55;;;;;;;14.07;2.28;;;18.50;79.30;;;;;;5029105;28;20036;-80
2021/01/14 12:43:20;;;;;;;13.10;2.47;;;18.40;79.20;;;;;;5013629;28;20765;-82
2021/01/14 12:45:46;;;;;;;9.38;1.75;;;18.20;77.90;;;;;;5013881;28;20544;-82
2021/01/14 12:48:12;;;;;;;9.88;1.95;;;17.80;77.10;;;;;;5012065;28;20032;-79
2021/01/14 12:50:42;;;;;;;13.45;1.70;;;17.20;77.10;;;;;;5027992;28;20499;-78
2021/01/14 12:53:07;;;;;;;8.40;2.45;;;16.50;77.00;;;;;;5028338;28;20029;-79
2021/01/14 12:55:33;;;;;;;9.45;1.70;;;15.80;78.00;;;;;;5012228;28;20099;-81
2021/01/14 12:57:59;;;;;;;15.98;3.50;;;15.20;79.20;;;;;;5012579;28;20115;-80
2021/01/14 13:00:24;;;;;;;7.95;2.22;;;14.70;81.80;;;;;;5028513;28;20032;-80
2021/01/14 13:02:50;;;;;;;10.68;1.85;;;14.30;83.30;;;;;;5011730;28;20343;-77
2021/01/14 13:05:18;;;;;;;13.82;2.53;;;13.90;85.00;;;;;;5029125;28;20025;-80